Terminal Aerodrome Forecast
Issued by NWS

Home | Current Version | Previous Version | Text Only | Print | Product List | Glossary On
Versions: 1 2 3 4 5 6 7 8 9 10 11 12
000
FTAK31 PAJN 011722
TAFAYA
TAF
PAYA 011722Z 0118/0218 VRB03KT P6SM SKC
     FM020900 07004KT P6SM BKN150
      AMD LTD TO CLD VIS AND WIND 0202/0209=

USA.gov is the U.S. government's official web portal to all federal, state and local government web resources and services.